首页
METAR-TAF:

METAR-TAF

机场 :

Grande Prairie, 艾伯塔, 加拿大

纬度: 55-11N, 经度: 118-53W, 海拔: 666米

当前天气观测

该预报发布于58分钟前的08:00 UTC
风速6节,风向西
温度 -16°C
湿度 84%
气压 1029 hPa
能見度: 12.9公里
多云层高于6000英尺
小雪

METAR: CYQU 010800Z 28006KT 8SM -SN BKN060 M16/M18 A3038 RMK SC8 SLP348

时间: 02:58 (08:58 UTC)

预报

该预报发布于2小时和20分钟前的06:38 UTC
预报有效从01日的 07点(UTC)到 01日的 19点(UTC)
风速5节,风向西北
能見度: 10公里
阴天层高于5000英尺
小雪
短暂存在
从 01日的 07点(UTC)到 01日的 15点(UTC)
能見度: 6.4公里
阴天层高于3000英尺
小雪
从 01日的 1500点(UTC)
风速8节,风向北转西北
能見度: 10公里
少量云层高于1500英尺
多云层高于4000英尺
短暂存在
从 01日的 15点(UTC)到 01日的 19点(UTC)
多云层高于1500英尺

TAF: CYQU 010638Z 0107/0119 31005KT P6SM -SN OVC050 TEMPO 0107/0115 4SM -SN OVC030 FM011500 33008KT P6SM FEW015 BKN040 TEMPO 0115/0119 BKN015 RMK NXT FCST BY 011300Z

超过4000个机场的气象观测和天气预报(METAR&TAF报告)。

可查询的气象台以黄色和红色小点在地图上表示。

将鼠标移到小点上方,可查看气象台名称。

然后点击查看天气观测和预报。

如需切换地图:点击带黑十字的绿色按钮放大地图;点击带横线的绿色按钮缩小地图;或者点击绿色箭头查看邻近地区的地图。


METAR-TAF: